Time,TemperatureF,DewpointF,PressureIn,WindDirection,WindDirectionDegrees,WindSpeedMPH,WindSpeedGustMPH,Humidity,HourlyPrecipIn,Conditions,Clouds,dailyrainin,SoftwareType,DateUTC
2013-06-06 00:00:00,81.4,49.5,29.67,South,178,9.0,10.0,33,0.00,,,0.00,Wunderground v.1.15,2013-06-06 07:00:00,
2013-06-06 00:10:00,81.5,50.4,29.67,South,169,7.0,7.0,34,0.00,,,0.00,Wunderground v.1.15,2013-06-06 07:10:00,
2013-06-06 00:20:00,81.3,50.2,29.67,South,178,7.0,7.0,34,0.00,,,0.00,Wunderground v.1.15,2013-06-06 07:20:00,
2013-06-06 00:30:00,81.6,50.5,29.67,South,188,11.0,11.0,34,0.00,,,0.00,Wunderground v.1.15,2013-06-06 07:30:00,
2013-06-06 00:40:00,81.0,50.8,29.67,South,180,11.0,11.0,35,0.00,,,0.00,Wunderground v.1.15,2013-06-06 07:40:00,
2013-06-06 00:50:00,80.1,50.0,29.67,South,175,5.0,10.0,35,0.00,,,0.00,Wunderground v.1.15,2013-06-06 07:50:00,
2013-06-06 01:00:00,80.4,50.2,29.67,SSW,194,5.0,10.0,35,0.00,,,0.00,Wunderground v.1.15,2013-06-06 08:00:00,
2013-06-06 01:10:00,80.2,50.1,29.67,SSW,194,4.0,10.0,35,0.00,,,0.00,Wunderground v.1.15,2013-06-06 08:10:00,
2013-06-06 01:20:00,79.8,49.7,29.67,SSW,194,2.0,2.0,35,0.00,,,0.00,Wunderground v.1.15,2013-06-06 08:20:00,
2013-06-06 01:30:00,79.6,49.5,29.67,SSW,194,0.0,10.0,35,0.00,,,0.00,Wunderground v.1.15,2013-06-06 08:30:00,
2013-06-06 01:40:00,77.6,48.5,29.67,SSW,194,2.0,10.0,36,0.00,,,0.00,Wunderground v.1.15,2013-06-06 08:40:00,
2013-06-06 01:50:00,77.5,49.9,29.67,NE,49,2.0,10.0,38,0.00,,,0.00,Wunderground v.1.15,2013-06-06 08:50:00,
2013-06-06 02:00:00,77.5,49.9,29.67,NE,51,3.0,10.0,38,0.00,,,0.00,Wunderground v.1.15,2013-06-06 09:00:00,
2013-06-06 02:10:00,76.7,49.2,29.66,NE,51,3.0,10.0,38,0.00,,,0.00,Wunderground v.1.15,2013-06-06 09:10:00,
2013-06-06 02:20:00,76.9,50.1,29.67,NE,51,1.0,1.0,39,0.00,,,0.00,Wunderground v.1.15,2013-06-06 09:20:00,
2013-06-06 02:30:00,77.2,49.6,29.67,NE,51,0.0,10.0,38,0.00,,,0.00,Wunderground v.1.15,2013-06-06 09:30:00,
2013-06-06 02:40:00,77.5,49.9,29.67,NE,51,3.0,10.0,38,0.00,,,0.00,Wunderground v.1.15,2013-06-06 09:40:00,
2013-06-06 02:50:00,77.6,49.3,29.67,NE,51,3.0,3.0,37,0.00,,,0.00,Wunderground v.1.15,2013-06-06 09:50:00,
2013-06-06 03:00:00,76.4,48.2,29.67,NE,51,4.0,10.0,37,0.00,,,0.00,Wunderground v.1.15,2013-06-06 10:00:00,
2013-06-06 03:10:00,76.0,47.8,29.66,East,88,5.0,10.0,37,0.00,,,0.00,Wunderground v.1.15,2013-06-06 10:10:00,
2013-06-06 03:20:00,76.3,47.4,29.66,East,90,4.0,10.0,36,0.00,,,0.00,Wunderground v.1.15,2013-06-06 10:20:00,
2013-06-06 03:30:00,74.4,46.4,29.67,East,93,4.0,10.0,37,0.00,,,0.00,Wunderground v.1.15,2013-06-06 10:30:00,
2013-06-06 03:40:00,75.0,47.7,29.67,East,93,3.0,10.0,38,0.00,,,0.00,Wunderground v.1.15,2013-06-06 10:40:00,
2013-06-06 03:50:00,74.1,47.6,29.67,East,94,3.0,10.0,39,0.00,,,0.00,Wunderground v.1.15,2013-06-06 10:50:00,
2013-06-06 04:00:00,75.0,48.4,29.67,East,94,2.0,10.0,39,0.00,,,0.00,Wunderground v.1.15,2013-06-06 11:00:00,
2013-06-06 04:10:00,71.8,46.2,29.67,East,101,3.0,10.0,40,0.00,,,0.00,Wunderground v.1.15,2013-06-06 11:10:00,
2013-06-06 04:20:00,72.1,46.4,29.66,ESE,112,4.0,10.0,40,0.00,,,0.00,Wunderground v.1.15,2013-06-06 11:20:00,
2013-06-06 04:30:00,71.3,46.4,29.66,ESE,117,5.0,10.0,41,0.00,,,0.00,Wunderground v.1.15,2013-06-06 11:30:00,
2013-06-06 04:40:00,70.9,46.0,29.67,ESE,117,2.0,2.0,41,0.00,,,0.00,Wunderground v.1.15,2013-06-06 11:40:00,
2013-06-06 04:50:00,70.3,46.1,29.66,ESE,117,0.0,10.0,42,0.00,,,0.00,Wunderground v.1.15,2013-06-06 11:50:00,
2013-06-06 05:00:00,69.9,46.4,29.67,ESE,117,0.0,10.0,43,0.00,,,0.00,Wunderground v.1.15,2013-06-06 12:00:00,
2013-06-06 05:10:00,69.9,46.4,29.66,ESE,115,1.0,10.0,43,0.00,,,0.00,Wunderground v.1.15,2013-06-06 12:10:00,
2013-06-06 05:20:00,71.1,46.8,29.67,ESE,117,2.0,10.0,42,0.00,,,0.00,Wunderground v.1.15,2013-06-06 12:20:00,
2013-06-06 05:30:00,71.1,47.5,29.67,ESE,117,2.0,2.0,43,0.00,,,0.00,Wunderground v.1.15,2013-06-06 12:30:00,
2013-06-06 05:40:00,71.2,46.9,29.67,SE,143,3.0,10.0,42,0.00,,,0.00,Wunderground v.1.15,2013-06-06 12:40:00,
2013-06-06 05:50:00,70.5,46.9,29.67,South,182,4.0,4.0,43,0.00,,,0.00,Wunderground v.1.15,2013-06-06 12:50:00,
2013-06-06 06:00:00,68.8,46.6,29.68,South,182,2.0,2.0,45,0.00,,,0.00,Wunderground v.1.15,2013-06-06 13:00:00,
2013-06-06 06:10:00,68.4,46.2,29.68,South,182,1.0,10.0,45,0.00,,,0.00,Wunderground v.1.15,2013-06-06 13:10:00,
2013-06-06 06:20:00,68.1,45.9,29.68,South,182,1.0,10.0,45,0.00,,,0.00,Wunderground v.1.15,2013-06-06 13:20:00,
2013-06-06 06:30:00,68.6,46.4,29.68,South,182,2.0,10.0,45,0.00,,,0.00,Wunderground v.1.15,2013-06-06 13:30:00,
2013-06-06 06:40:00,69.4,46.5,29.69,South,180,2.0,2.0,44,0.00,,,0.00,Wunderground v.1.15,2013-06-06 13:40:00,
2013-06-06 06:50:00,70.0,46.5,29.68,South,182,3.0,10.0,43,0.00,,,0.00,Wunderground v.1.15,2013-06-06 13:50:00,
2013-06-06 07:00:00,70.1,46.6,29.69,South,182,3.0,10.0,43,0.00,,,0.00,Wunderground v.1.15,2013-06-06 14:00:00,
2013-06-06 07:10:00,69.9,46.4,29.69,South,184,3.0,10.0,43,0.00,,,0.00,Wunderground v.1.15,2013-06-06 14:10:00,
2013-06-06 07:20:00,70.1,46.6,29.69,South,186,3.0,3.0,43,0.00,,,0.00,Wunderground v.1.15,2013-06-06 14:20:00,
2013-06-06 07:30:00,70.5,46.3,29.69,South,186,2.0,2.0,42,0.00,,,0.00,Wunderground v.1.15,2013-06-06 14:30:00,
2013-06-06 07:40:00,71.5,46.6,29.69,South,186,1.0,10.0,41,0.00,,,0.00,Wunderground v.1.15,2013-06-06 14:40:00,
2013-06-06 07:50:00,72.6,47.5,29.69,South,186,1.0,1.0,41,0.00,,,0.00,Wunderground v.1.15,2013-06-06 14:50:00,
2013-06-06 08:00:00,73.8,47.3,29.69,South,186,0.0,10.0,39,0.00,,,0.00,Wunderground v.1.15,2013-06-06 15:00:00,
2013-06-06 08:10:00,74.6,48.0,29.70,South,186,1.0,1.0,39,0.00,,,0.00,Wunderground v.1.15,2013-06-06 15:10:00,
2013-06-06 08:20:00,75.5,48.1,29.70,South,186,1.0,10.0,38,0.00,,,0.00,Wunderground v.1.15,2013-06-06 15:20:00,
2013-06-06 08:30:00,75.8,48.4,29.70,West,263,1.0,10.0,38,0.00,,,0.00,Wunderground v.1.15,2013-06-06 15:30:00,
2013-06-06 08:40:00,76.5,48.3,29.70,West,279,2.0,2.0,37,0.00,,,0.00,Wunderground v.1.15,2013-06-06 15:40:00,
2013-06-06 08:50:00,77.8,48.7,29.70,West,279,1.0,10.0,36,0.00,,,0.00,Wunderground v.1.15,2013-06-06 15:50:00,
2013-06-06 09:00:00,78.2,49.1,29.70,West,276,2.0,2.0,36,0.00,,,0.00,Wunderground v.1.15,2013-06-06 16:00:00,
2013-06-06 09:10:00,79.1,49.8,29.69,West,277,2.0,10.0,36,0.00,,,0.00,Wunderground v.1.15,2013-06-06 16:10:00,
2013-06-06 09:20:00,80.2,50.1,29.70,West,260,3.0,3.0,35,0.00,,,0.00,Wunderground v.1.15,2013-06-06 16:20:00,
2013-06-06 09:30:00,81.3,50.2,29.69,West,272,3.0,3.0,34,0.00,,,0.00,Wunderground v.1.15,2013-06-06 16:30:00,
2013-06-06 09:40:00,82.0,50.9,29.69,West,273,2.0,2.0,34,0.00,,,0.00,Wunderground v.1.15,2013-06-06 16:40:00,
2013-06-06 09:50:00,82.9,50.8,29.69,West,272,3.0,10.0,33,0.00,,,0.00,Wunderground v.1.15,2013-06-06 16:50:00,
2013-06-06 10:00:00,83.9,50.9,29.68,WSW,255,3.0,10.0,32,0.00,,,0.00,Wunderground v.1.15,2013-06-06 17:00:00,
2013-06-06 10:10:00,84.7,50.7,29.68,West,269,4.0,10.0,31,0.00,,,0.00,Wunderground v.1.15,2013-06-06 17:10:00,
2013-06-06 10:20:00,85.4,51.3,29.68,WSW,257,4.0,4.0,31,0.00,,,0.00,Wunderground v.1.15,2013-06-06 17:20:00,
2013-06-06 10:30:00,86.3,51.2,29.68,SW,233,4.0,4.0,30,0.00,,,0.00,Wunderground v.1.15,2013-06-06 17:30:00,
2013-06-06 10:40:00,87.0,50.9,29.67,West,279,5.0,5.0,29,0.00,,,0.00,Wunderground v.1.15,2013-06-06 17:40:00,
2013-06-06 10:50:00,88.1,50.9,29.67,West,276,4.0,4.0,28,0.00,,,0.00,Wunderground v.1.15,2013-06-06 17:50:00,
2013-06-06 11:00:00,88.9,50.6,29.67,WSW,255,6.0,6.0,27,0.00,,,0.00,Wunderground v.1.15,2013-06-06 18:00:00,
2013-06-06 11:10:00,90.0,50.5,29.67,West,259,3.0,3.0,26,0.00,,,0.00,Wunderground v.1.15,2013-06-06 18:10:00,
2013-06-06 11:20:00,91.8,51.0,29.67,West,274,3.0,10.0,25,0.00,,,0.00,Wunderground v.1.15,2013-06-06 18:20:00,
2013-06-06 11:30:00,92.4,50.4,29.67,WSW,245,5.0,5.0,24,0.00,,,0.00,Wunderground v.1.15,2013-06-06 18:30:00,
2013-06-06 11:40:00,93.4,50.1,29.66,SW,215,4.0,10.0,23,0.00,,,0.00,Wunderground v.1.15,2013-06-06 18:40:00,
2013-06-06 11:50:00,95.3,49.2,29.66,SSW,209,2.0,10.0,21,0.00,,,0.00,Wunderground v.1.15,2013-06-06 18:50:00,
2013-06-06 12:00:00,97.0,49.3,29.65,WSW,254,4.0,10.0,20,0.00,,,0.00,Wunderground v.1.15,2013-06-06 19:00:00,
2013-06-06 12:10:00,97.1,48.0,29.65,SW,232,7.0,7.0,19,0.00,,,0.00,Wunderground v.1.15,2013-06-06 19:10:00,
2013-06-06 12:20:00,98.1,47.4,29.65,WSW,238,3.0,3.0,18,0.00,,,0.00,Wunderground v.1.15,2013-06-06 19:20:00,
2013-06-06 12:30:00,99.5,47.0,29.64,NW,326,1.0,1.0,17,0.00,,,0.00,Wunderground v.1.15,2013-06-06 19:30:00,
2013-06-06 12:40:00,100.4,44.4,29.64,West,267,2.0,10.0,15,0.00,,,0.00,Wunderground v.1.15,2013-06-06 19:40:00,
2013-06-06 12:50:00,101.2,46.7,29.63,West,267,4.0,10.0,16,0.00,,,0.00,Wunderground v.1.15,2013-06-06 19:50:00,
2013-06-06 13:00:00,100.5,46.2,29.63,West,278,7.0,12.0,16,0.00,,,0.00,Wunderground v.1.15,2013-06-06 20:00:00,
2013-06-06 13:10:00,101.1,46.6,29.63,WSW,244,8.0,11.0,16,0.00,,,0.00,Wunderground v.1.15,2013-06-06 20:10:00,
2013-06-06 13:20:00,101.2,46.7,29.62,SW,215,9.0,14.0,16,0.00,,,0.00,Wunderground v.1.15,2013-06-06 20:20:00,
2013-06-06 13:30:00,102.0,45.6,29.62,West,279,11.0,11.0,15,0.00,,,0.00,Wunderground v.1.15,2013-06-06 20:30:00,
2013-06-06 13:40:00,104.3,45.6,29.61,SSW,198,5.0,5.0,14,0.00,,,0.00,Wunderground v.1.15,2013-06-06 20:40:00,
2013-06-06 13:50:00,102.4,44.1,29.61,WNW,294,8.0,8.0,14,0.00,,,0.00,Wunderground v.1.15,2013-06-06 20:50:00,
2013-06-06 14:00:00,103.5,45.0,29.61,NW,317,6.0,14.0,14,0.00,,,0.00,Wunderground v.1.15,2013-06-06 21:00:00,
2013-06-06 14:10:00,102.5,46.0,29.61,SSW,205,11.0,11.0,15,0.00,,,0.00,Wunderground v.1.15,2013-06-06 21:10:00,
2013-06-06 14:20:00,102.3,44.1,29.60,South,186,6.0,12.0,14,0.00,,,0.00,Wunderground v.1.15,2013-06-06 21:20:00,
2013-06-06 14:30:00,103.6,38.8,29.60,South,179,15.0,15.0,11,0.00,,,0.00,Wunderground v.1.15,2013-06-06 21:30:00,
2013-06-06 14:40:00,103.8,39.0,29.59,SW,233,12.0,13.0,11,0.00,,,0.00,Wunderground v.1.15,2013-06-06 21:40:00,
2013-06-06 14:50:00,103.2,40.7,29.59,WSW,240,12.0,12.0,12,0.00,,,0.00,Wunderground v.1.15,2013-06-06 21:50:00,
2013-06-06 15:00:00,103.4,38.7,29.58,SW,218,13.0,13.0,11,0.00,,,0.00,Wunderground v.1.15,2013-06-06 22:00:00,
2013-06-06 15:10:00,103.9,39.0,29.58,SSW,209,16.0,16.0,11,0.00,,,0.00,Wunderground v.1.15,2013-06-06 22:10:00,
2013-06-06 15:20:00,103.1,38.4,29.58,South,191,12.0,18.0,11,0.00,,,0.00,Wunderground v.1.15,2013-06-06 22:20:00,
2013-06-06 15:30:00,103.6,38.8,29.58,SSW,207,15.0,16.0,11,0.00,,,0.00,Wunderground v.1.15,2013-06-06 22:30:00,
2013-06-06 15:40:00,103.7,38.9,29.58,SSW,209,16.0,16.0,11,0.00,,,0.00,Wunderground v.1.15,2013-06-06 22:40:00,
2013-06-06 15:50:00,104.1,39.2,29.58,SSW,211,10.0,10.0,11,0.00,,,0.00,Wunderground v.1.15,2013-06-06 22:50:00,
2013-06-06 16:00:00,104.0,39.1,29.57,South,182,11.0,14.0,11,0.00,,,0.00,Wunderground v.1.15,2013-06-06 23:00:00,
2013-06-06 16:10:00,103.7,38.9,29.56,West,273,9.0,11.0,11,0.00,,,0.00,Wunderground v.1.15,2013-06-06 23:10:00,
2013-06-06 16:20:00,104.1,39.2,29.57,SSW,206,10.0,10.0,11,0.00,,,0.00,Wunderground v.1.15,2013-06-06 23:20:00,
2013-06-06 16:30:00,104.3,39.4,29.56,South,180,11.0,19.0,11,0.00,,,0.00,Wunderground v.1.15,2013-06-06 23:30:00,
2013-06-06 16:40:00,103.8,39.0,29.55,SW,225,12.0,16.0,11,0.00,,,0.00,Wunderground v.1.15,2013-06-06 23:40:00,
2013-06-06 16:50:00,104.0,39.1,29.55,South,179,13.0,13.0,11,0.00,,,0.00,Wunderground v.1.15,2013-06-06 23:50:00,
2013-06-06 17:00:00,104.0,39.1,29.55,SW,218,10.0,11.0,11,0.00,,,0.00,Wunderground v.1.15,2013-06-07 00:00:00,
2013-06-06 17:10:00,103.5,38.7,29.55,SSW,192,12.0,12.0,11,0.00,,,0.00,Wunderground v.1.15,2013-06-07 00:10:00,
2013-06-06 17:20:00,103.8,39.0,29.55,SSE,161,10.0,10.0,11,0.00,,,0.00,Wunderground v.1.15,2013-06-07 00:20:00,
2013-06-06 17:30:00,103.8,39.0,29.55,East,89,7.0,7.0,11,0.00,,,0.00,Wunderground v.1.15,2013-06-07 00:30:00,
2013-06-06 17:40:00,104.3,39.4,29.55,SSE,152,4.0,10.0,11,0.00,,,0.00,Wunderground v.1.15,2013-06-07 00:40:00,
2013-06-06 17:50:00,103.9,39.0,29.54,South,184,9.0,9.0,11,0.00,,,0.00,Wunderground v.1.15,2013-06-07 00:50:00,
2013-06-06 18:00:00,103.4,38.7,29.54,WSW,256,6.0,6.0,11,0.00,,,0.00,Wunderground v.1.15,2013-06-07 01:00:00,
2013-06-06 18:10:00,103.6,38.8,29.54,SE,140,6.0,6.0,11,0.00,,,0.00,Wunderground v.1.15,2013-06-07 01:10:00,
2013-06-06 18:20:00,103.7,38.9,29.53,SW,215,2.0,10.0,11,0.00,,,0.00,Wunderground v.1.15,2013-06-07 01:20:00,
2013-06-06 18:30:00,102.9,48.1,29.54,West,265,12.0,18.0,16,0.00,,,0.00,Wunderground v.1.15,2013-06-07 01:30:00,
2013-06-06 18:40:00,99.1,52.3,29.54,SW,232,24.0,24.0,21,0.00,,,0.00,Wunderground v.1.15,2013-06-07 01:40:00,
2013-06-06 18:50:00,97.9,53.8,29.55,WSW,253,24.0,24.0,23,0.00,,,0.00,Wunderground v.1.15,2013-06-07 01:50:00,
2013-06-06 19:00:00,97.2,54.4,29.56,West,259,21.0,21.0,24,0.00,,,0.00,Wunderground v.1.15,2013-06-07 02:00:00,
2013-06-06 19:10:00,96.7,54.0,29.56,WSW,257,20.0,20.0,24,0.00,,,0.00,Wunderground v.1.15,2013-06-07 02:10:00,
2013-06-06 19:20:00,95.9,54.4,29.56,WSW,258,20.0,22.0,25,0.00,,,0.00,Wunderground v.1.15,2013-06-07 02:20:00,
2013-06-06 19:30:00,94.6,55.4,29.57,WSW,242,21.0,21.0,27,0.00,,,0.00,Wunderground v.1.15,2013-06-07 02:30:00,
2013-06-06 19:40:00,93.7,54.7,29.57,WSW,240,19.0,19.0,27,0.00,,,0.00,Wunderground v.1.15,2013-06-07 02:40:00,
2013-06-06 19:50:00,92.7,54.8,29.57,WSW,244,18.0,19.0,28,0.00,,,0.00,Wunderground v.1.15,2013-06-07 02:50:00,
2013-06-06 20:00:00,91.8,55.0,29.58,WSW,239,18.0,18.0,29,0.00,,,0.00,Wunderground v.1.15,2013-06-07 03:00:00,
2013-06-06 20:10:00,91.3,54.6,29.58,SW,230,17.0,17.0,29,0.00,,,0.00,Wunderground v.1.15,2013-06-07 03:10:00,
2013-06-06 20:20:00,90.6,54.9,29.59,South,184,14.0,18.0,30,0.00,,,0.00,Wunderground v.1.15,2013-06-07 03:20:00,
2013-06-06 20:30:00,89.6,55.0,29.59,SSW,199,18.0,18.0,31,0.00,,,0.00,Wunderground v.1.15,2013-06-07 03:30:00,
2013-06-06 20:40:00,89.3,54.7,29.59,SSW,202,22.0,22.0,31,0.00,,,0.00,Wunderground v.1.15,2013-06-07 03:40:00,
2013-06-06 20:50:00,88.8,55.1,29.60,SW,219,20.0,20.0,32,0.00,,,0.00,Wunderground v.1.15,2013-06-07 03:50:00,
2013-06-06 21:00:00,88.3,55.6,29.60,SSW,211,17.0,17.0,33,0.00,,,0.00,Wunderground v.1.15,2013-06-07 04:00:00,
2013-06-06 21:10:00,88.0,55.3,29.60,SW,216,16.0,18.0,33,0.00,,,0.00,Wunderground v.1.15,2013-06-07 04:10:00,
2013-06-06 21:20:00,87.9,54.4,29.60,SSW,205,17.0,17.0,32,0.00,,,0.00,Wunderground v.1.15,2013-06-07 04:20:00,
2013-06-06 21:30:00,87.8,54.3,29.61,SW,215,17.0,17.0,32,0.00,,,0.00,Wunderground v.1.15,2013-06-07 04:30:00,
2013-06-06 21:40:00,87.6,54.1,29.61,WSW,244,18.0,18.0,32,0.00,,,0.00,Wunderground v.1.15,2013-06-07 04:40:00,
2013-06-06 21:50:00,87.5,54.0,29.62,SSW,199,16.0,16.0,32,0.00,,,0.00,Wunderground v.1.15,2013-06-07 04:50:00,
2013-06-06 22:00:00,87.1,53.7,29.62,SW,232,14.0,14.0,32,0.00,,,0.00,Wunderground v.1.15,2013-06-07 05:00:00,
2013-06-06 22:10:00,86.9,53.5,29.62,SSW,195,15.0,16.0,32,0.00,,,0.00,Wunderground v.1.15,2013-06-07 05:10:00,
2013-06-06 22:20:00,86.6,53.2,29.62,SSW,204,14.0,20.0,32,0.00,,,0.00,Wunderground v.1.15,2013-06-07 05:20:00,
2013-06-06 22:30:00,86.6,52.4,29.62,South,191,16.0,16.0,31,0.00,,,0.00,Wunderground v.1.15,2013-06-07 05:30:00,
2013-06-06 22:40:00,85.7,51.6,29.62,South,187,12.0,13.0,31,0.00,,,0.00,Wunderground v.1.15,2013-06-07 05:40:00,
2013-06-06 22:50:00,85.7,51.6,29.62,SSW,207,11.0,11.0,31,0.00,,,0.00,Wunderground v.1.15,2013-06-07 05:50:00,
2013-06-06 23:00:00,85.9,51.8,29.62,SSW,207,10.0,10.0,31,0.00,,,0.00,Wunderground v.1.15,2013-06-07 06:00:00,
2013-06-06 23:10:00,85.2,51.1,29.63,South,188,10.0,14.0,31,0.00,,,0.00,Wunderground v.1.15,2013-06-07 06:10:00,
2013-06-06 23:20:00,85.8,51.7,29.63,SSW,194,11.0,13.0,31,0.00,,,0.00,Wunderground v.1.15,2013-06-07 06:20:00,
2013-06-06 23:30:00,85.4,51.3,29.63,SSW,195,11.0,11.0,31,0.00,,,0.00,Wunderground v.1.15,2013-06-07 06:30:00,
2013-06-06 23:40:00,84.7,50.7,29.63,South,183,11.0,12.0,31,0.00,,,0.00,Wunderground v.1.15,2013-06-07 06:40:00,
2013-06-06 23:50:00,85.0,51.8,29.62,SW,229,13.0,13.0,32,0.00,,,0.00,Wunderground v.1.15,2013-06-07 06:50:00,